createdAt,value
2018-03-19T00:01:12.476Z,6.63
2018-03-19T00:03:40.024Z,6.62
2018-03-19T00:06:07.574Z,6.55
2018-03-19T00:08:35.152Z,6.53
2018-03-19T00:11:02.703Z,6.48
2018-03-19T00:13:30.246Z,6.48
2018-03-19T00:15:57.820Z,6.46
2018-03-19T00:18:25.357Z,6.45
2018-03-19T00:20:52.907Z,6.42
2018-03-19T00:23:20.630Z,6.41
2018-03-19T00:25:48.175Z,6.42
2018-03-19T00:28:15.728Z,6.47
2018-03-19T00:30:43.305Z,6.52
2018-03-19T00:33:10.859Z,6.51
2018-03-19T00:35:38.421Z,6.53
2018-03-19T00:38:06.159Z,6.52
2018-03-19T00:40:33.743Z,6.54
2018-03-19T00:43:01.331Z,6.51
2018-03-19T00:45:29.030Z,6.53
2018-03-19T00:47:56.603Z,6.54
2018-03-19T00:50:24.151Z,6.55
2018-03-19T00:52:51.749Z,6.55
2018-03-19T00:55:19.304Z,6.56
2018-03-19T00:57:46.854Z,6.50
2018-03-19T01:00:14.574Z,6.50
2018-03-19T01:02:42.122Z,6.52
2018-03-19T01:05:09.675Z,6.53
2018-03-19T01:07:37.399Z,6.52
2018-03-19T01:10:04.970Z,6.54
2018-03-19T01:12:32.511Z,6.54
2018-03-19T01:15:00.393Z,6.52
2018-03-19T01:17:27.937Z,6.52
2018-03-19T01:19:55.480Z,6.56
2018-03-19T01:22:23.095Z,6.53
2018-03-19T01:24:50.658Z,6.55
2018-03-19T01:27:18.216Z,6.53
2018-03-19T01:29:46.036Z,6.56
2018-03-19T01:32:13.613Z,6.53
2018-03-19T01:34:41.156Z,6.40
2018-03-19T01:37:08.733Z,6.40
2018-03-19T01:39:36.274Z,6.39
2018-03-19T01:42:03.825Z,6.38
2018-03-19T01:44:31.558Z,6.39
2018-03-19T01:46:59.106Z,6.36
2018-03-19T01:49:26.654Z,6.29
2018-03-19T01:51:54.247Z,6.30
2018-03-19T01:54:21.805Z,6.28
2018-03-19T01:56:49.356Z,6.26
2018-03-19T01:59:16.930Z,6.21
2018-03-19T02:01:44.489Z,6.22
2018-03-19T02:04:12.029Z,6.23
2018-03-19T02:06:39.737Z,6.18
2018-03-19T02:09:07.332Z,6.13
2018-03-19T02:11:34.901Z,6.07
2018-03-19T02:14:02.508Z,6.09
2018-03-19T02:16:30.043Z,6.07
2018-03-19T02:18:57.586Z,6.07
2018-03-19T02:21:25.159Z,6.08
2018-03-19T02:23:52.703Z,6.11
2018-03-19T02:26:20.246Z,6.15
2018-03-19T02:28:47.839Z,6.15
2018-03-19T02:31:15.384Z,6.09
2018-03-19T02:33:42.951Z,6.06
2018-03-19T02:36:10.529Z,6.00
2018-03-19T02:38:38.083Z,5.96
2018-03-19T02:41:05.636Z,5.87
2018-03-19T02:43:33.232Z,5.82
2018-03-19T02:46:00.782Z,5.80
2018-03-19T02:48:28.334Z,5.78
2018-03-19T02:50:56.042Z,5.81
2018-03-19T02:53:23.598Z,5.77
2018-03-19T02:55:51.141Z,5.67
2018-03-19T02:58:18.991Z,5.69
2018-03-19T03:00:46.551Z,5.72
2018-03-19T03:03:14.110Z,5.73
2018-03-19T03:05:41.683Z,5.76
2018-03-19T03:08:09.229Z,5.76
2018-03-19T03:10:36.769Z,5.72
2018-03-19T03:13:04.649Z,5.72
2018-03-19T03:15:32.180Z,5.70
2018-03-19T03:17:59.727Z,5.67
2018-03-19T03:20:27.304Z,5.58
2018-03-19T03:22:54.881Z,5.54
2018-03-19T03:25:22.423Z,5.63
2018-03-19T03:27:50.029Z,5.65
2018-03-19T03:30:17.585Z,5.73
2018-03-19T03:32:45.133Z,5.78
2018-03-19T03:35:12.731Z,5.76
2018-03-19T03:37:40.284Z,5.75
2018-03-19T03:40:07.839Z,5.80
2018-03-19T03:42:35.570Z,5.83
2018-03-19T03:45:03.135Z,5.84
2018-03-19T03:47:30.695Z,5.86
2018-03-19T03:49:58.423Z,5.92
2018-03-19T03:52:25.972Z,5.95
2018-03-19T03:54:53.560Z,6.03
2018-03-19T03:57:21.135Z,6.03
2018-03-19T03:59:48.683Z,6.08
2018-03-19T04:02:16.238Z,6.08
2018-03-19T04:04:43.967Z,6.12
2018-03-19T04:07:11.521Z,6.14
2018-03-19T04:09:39.067Z,6.15
2018-03-19T04:12:06.643Z,6.17
2018-03-19T04:14:34.181Z,6.16
2018-03-19T04:17:01.813Z,6.02
2018-03-19T04:19:29.338Z,5.96
2018-03-19T04:21:56.898Z,6.02
2018-03-19T04:24:24.449Z,5.88
2018-03-19T04:26:52.030Z,5.88
2018-03-19T04:29:19.642Z,5.77
2018-03-19T04:31:47.196Z,5.82
2018-03-19T04:34:14.778Z,5.82
2018-03-19T04:36:42.343Z,5.87
2018-03-19T04:39:09.894Z,5.91
2018-03-19T04:41:37.498Z,5.84
2018-03-19T04:44:05.048Z,5.76
2018-03-19T04:46:32.619Z,5.76
2018-03-19T04:49:00.295Z,5.80
2018-03-19T04:51:27.871Z,5.87
2018-03-19T04:53:55.435Z,5.82
2018-03-19T04:56:22.980Z,5.83
2018-03-19T04:58:50.544Z,5.78
2018-03-19T05:01:18.119Z,5.82
2018-03-19T05:03:45.663Z,5.93
2018-03-19T05:06:13.228Z,5.97
2018-03-19T05:08:40.961Z,5.95
2018-03-19T05:11:08.522Z,6.03
2018-03-19T05:13:36.134Z,6.08
2018-03-19T05:16:03.866Z,6.11
2018-03-19T05:18:31.432Z,6.15
2018-03-19T05:20:58.991Z,6.19
2018-03-19T05:23:26.565Z,6.20
2018-03-19T05:25:54.124Z,6.29
2018-03-19T05:28:21.783Z,6.42
2018-03-19T05:30:49.454Z,6.47
2018-03-19T05:33:17.010Z,6.58
2018-03-19T05:35:44.599Z,6.72
2018-03-19T05:38:12.207Z,6.74
2018-03-19T05:40:39.784Z,6.80
2018-03-19T05:43:07.343Z,6.83
2018-03-19T05:45:35.075Z,6.83
2018-03-19T05:48:02.621Z,6.82
2018-03-19T05:50:30.166Z,6.86
2018-03-19T05:52:57.745Z,6.91
2018-03-19T05:55:25.295Z,6.91
2018-03-19T05:57:52.863Z,6.88
2018-03-19T06:00:20.616Z,6.79
2018-03-19T06:02:48.175Z,6.72
2018-03-19T06:05:15.725Z,6.81
2018-03-19T06:07:43.422Z,6.82
2018-03-19T06:10:10.963Z,6.92
2018-03-19T06:12:38.518Z,6.99
2018-03-19T06:15:06.455Z,7.09
2018-03-19T06:17:34.008Z,7.10
2018-03-19T06:20:01.602Z,7.10
2018-03-19T06:22:29.327Z,7.05
2018-03-19T06:24:56.879Z,7.01
2018-03-19T06:27:24.426Z,7.09
2018-03-19T06:29:52.028Z,7.15
2018-03-19T06:32:19.569Z,7.07
2018-03-19T06:34:47.114Z,7.09
2018-03-19T06:37:14.849Z,7.08
2018-03-19T06:39:42.408Z,7.12
2018-03-19T06:42:09.958Z,7.04
2018-03-19T06:44:37.719Z,7.04
2018-03-19T06:47:05.255Z,7.12
2018-03-19T06:49:32.811Z,7.13
2018-03-19T06:52:00.767Z,7.23
2018-03-19T06:54:28.305Z,7.22
2018-03-19T06:56:55.859Z,7.26
2018-03-19T06:59:23.604Z,7.31
2018-03-19T07:01:51.150Z,7.47
2018-03-19T07:04:18.706Z,7.47
2018-03-19T07:06:46.370Z,7.60
2018-03-19T07:09:13.926Z,7.71
2018-03-19T07:11:41.466Z,7.94
2018-03-19T07:14:09.046Z,8.05
2018-03-19T07:16:36.588Z,7.95
2018-03-19T07:19:04.154Z,8.08
2018-03-19T07:21:31.722Z,8.08
2018-03-19T07:23:59.263Z,7.92
2018-03-19T07:26:26.857Z,7.77
2018-03-19T07:28:54.511Z,7.84
2018-03-19T07:31:22.054Z,7.90
2018-03-19T07:33:49.628Z,8.17
2018-03-19T07:36:17.367Z,8.31
2018-03-19T07:38:44.910Z,8.48
2018-03-19T07:41:12.470Z,8.86
2018-03-19T07:43:40.185Z,8.85
2018-03-19T07:46:07.730Z,8.97
2018-03-19T07:48:35.316Z,8.94
2018-03-19T07:51:02.913Z,8.87
2018-03-19T07:53:30.473Z,8.76
2018-03-19T07:55:58.012Z,8.42
2018-03-19T07:58:25.582Z,8.31
2018-03-19T08:00:53.138Z,8.29
2018-03-19T08:03:20.678Z,8.21
2018-03-19T08:05:48.411Z,8.32
2018-03-19T08:08:15.922Z,8.34
2018-03-19T08:10:43.460Z,8.32
2018-03-19T08:13:11.035Z,8.46
2018-03-19T08:15:38.585Z,8.63
2018-03-19T08:18:06.127Z,8.64
2018-03-19T08:20:33.716Z,8.65
2018-03-19T08:23:01.266Z,8.72
2018-03-19T08:25:28.831Z,8.90
2018-03-19T08:27:56.551Z,8.79
2018-03-19T08:30:24.130Z,8.87
2018-03-19T08:32:51.692Z,8.89
2018-03-19T08:35:19.372Z,8.78
2018-03-19T08:37:46.900Z,8.79
2018-03-19T08:40:14.435Z,8.62
2018-03-19T08:42:42.355Z,8.62
2018-03-19T08:45:09.905Z,8.50
2018-03-19T08:47:37.453Z,8.59
2018-03-19T08:50:05.053Z,8.71
2018-03-19T08:52:32.597Z,8.78
2018-03-19T08:55:00.150Z,8.60
2018-03-19T08:57:27.704Z,8.66
2018-03-19T08:59:55.242Z,8.65
2018-03-19T09:02:22.821Z,8.87
2018-03-19T09:04:50.358Z,8.88
2018-03-19T09:07:17.964Z,9.28
2018-03-19T09:09:45.623Z,9.51
2018-03-19T09:12:13.162Z,9.73
2018-03-19T09:14:40.704Z,10.06
2018-03-19T09:17:08.283Z,9.89
2018-03-19T09:19:35.822Z,9.94
2018-03-19T09:22:03.362Z,9.75
2018-03-19T09:24:31.082Z,9.85
2018-03-19T09:26:58.631Z,9.83
2018-03-19T09:29:26.214Z,9.80
2018-03-19T09:31:53.907Z,9.56
2018-03-19T09:34:21.465Z,9.49
2018-03-19T09:36:48.999Z,9.27
2018-03-19T09:39:16.738Z,9.03
2018-03-19T09:41:44.278Z,9.22
2018-03-19T09:44:11.817Z,9.39
2018-03-19T09:46:39.529Z,9.56
2018-03-19T09:49:07.071Z,9.56
2018-03-19T09:51:34.614Z,9.59
2018-03-19T09:54:02.199Z,9.13
2018-03-19T09:56:29.739Z,8.80
2018-03-19T09:58:57.290Z,8.94
2018-03-19T10:01:25.010Z,9.09
2018-03-19T10:03:52.562Z,9.21
2018-03-19T10:06:20.129Z,9.20
2018-03-19T10:08:47.995Z,9.30
2018-03-19T10:11:15.559Z,8.85
2018-03-19T10:13:43.099Z,8.73
2018-03-19T10:16:10.704Z,8.99
2018-03-19T10:18:38.277Z,9.06
2018-03-19T10:21:05.820Z,8.98
2018-03-19T10:23:33.403Z,8.90
2018-03-19T10:26:00.953Z,8.66
2018-03-19T10:28:28.510Z,8.45
2018-03-19T10:30:56.095Z,8.84
2018-03-19T10:33:23.652Z,8.88
2018-03-19T10:35:51.198Z,8.64
2018-03-19T10:38:18.874Z,8.87
2018-03-19T10:40:46.416Z,9.01
2018-03-19T10:43:13.954Z,8.76
2018-03-19T10:45:41.551Z,8.86
2018-03-19T10:48:09.095Z,9.02
2018-03-19T10:50:36.629Z,9.29
2018-03-19T10:53:04.298Z,9.33
2018-03-19T10:55:31.842Z,8.78
2018-03-19T10:57:59.378Z,8.80
2018-03-19T11:00:26.952Z,8.66
2018-03-19T11:02:54.568Z,8.48
2018-03-19T11:05:27.710Z,8.46
2018-03-19T11:08:00.877Z,8.29
2018-03-19T11:10:28.460Z,8.16
2018-03-19T11:12:56.001Z,8.41
2018-03-19T11:15:23.543Z,8.69
2018-03-19T11:17:51.243Z,8.58
2018-03-19T11:20:19.694Z,8.58
2018-03-19T11:22:47.242Z,8.81
2018-03-19T11:25:14.963Z,8.85
2018-03-19T11:27:42.515Z,8.86
2018-03-19T11:30:10.109Z,9.07
2018-03-19T11:32:37.833Z,9.05
2018-03-19T11:35:05.376Z,8.51
2018-03-19T11:37:32.936Z,8.12
2018-03-19T11:40:00.598Z,8.14
2018-03-19T11:42:28.152Z,8.05
2018-03-19T11:44:55.688Z,8.13
2018-03-19T11:47:23.369Z,8.16
2018-03-19T11:49:50.915Z,8.53
2018-03-19T11:52:18.459Z,8.28
2018-03-19T11:54:46.053Z,8.09
2018-03-19T11:57:14.043Z,8.07
2018-03-19T11:59:41.603Z,7.96
2018-03-19T12:02:09.294Z,7.78
2018-03-19T12:04:36.848Z,7.65
2018-03-19T12:07:04.395Z,7.69
2018-03-19T12:09:31.959Z,7.72
2018-03-19T12:11:59.492Z,7.48
2018-03-19T12:14:27.023Z,7.56
2018-03-19T12:16:54.597Z,7.05
2018-03-19T12:19:22.167Z,6.93
2018-03-19T12:21:49.711Z,6.89
2018-03-19T12:24:18.458Z,6.85
2018-03-19T12:26:45.996Z,6.68
2018-03-19T12:29:13.558Z,6.66
2018-03-19T12:31:41.144Z,6.67
2018-03-19T12:34:08.704Z,6.46
2018-03-19T12:36:36.297Z,6.40
2018-03-19T12:39:04.056Z,6.35
2018-03-19T12:41:31.597Z,6.24
2018-03-19T12:43:59.143Z,6.21
2018-03-19T12:46:26.729Z,6.18
2018-03-19T12:48:54.296Z,6.08
2018-03-19T12:51:21.863Z,5.99
2018-03-19T12:53:49.454Z,5.95
2018-03-19T12:56:17.034Z,5.88
2018-03-19T12:58:44.576Z,5.87
2018-03-19T13:01:12.179Z,5.96
2018-03-19T13:03:39.747Z,5.91
2018-03-19T13:06:07.286Z,5.74
2018-03-19T13:08:34.890Z,5.52
2018-03-19T13:11:02.433Z,5.44
2018-03-19T13:13:30.275Z,5.32
2018-03-19T13:15:57.853Z,5.33
2018-03-19T13:18:25.395Z,5.31
2018-03-19T13:20:52.989Z,5.31
2018-03-19T13:23:20.587Z,5.28
2018-03-19T13:25:48.134Z,5.27
2018-03-19T13:28:15.677Z,5.33
2018-03-19T13:30:43.309Z,5.19
2018-03-19T13:33:10.870Z,5.22
2018-03-19T13:35:38.432Z,5.14
2018-03-19T13:38:06.165Z,5.15
2018-03-19T13:40:33.716Z,5.12
2018-03-19T13:43:01.270Z,4.91
2018-03-19T13:45:28.850Z,4.90
2018-03-19T13:47:56.394Z,4.84
2018-03-19T13:50:23.955Z,4.80
2018-03-19T13:52:51.640Z,4.59
2018-03-19T13:55:19.211Z,4.56
2018-03-19T13:57:46.767Z,4.53
2018-03-19T14:00:14.370Z,4.56
2018-03-19T14:02:41.916Z,4.48
2018-03-19T14:05:09.468Z,4.35
2018-03-19T14:07:37.343Z,4.18
2018-03-19T14:10:04.908Z,4.07
2018-03-19T14:12:32.464Z,3.94
2018-03-19T14:15:00.173Z,3.97
2018-03-19T14:17:27.724Z,3.92
2018-03-19T14:19:55.276Z,3.83
2018-03-19T14:22:22.972Z,3.78
2018-03-19T14:24:50.513Z,3.60
2018-03-19T14:27:18.054Z,3.53
2018-03-19T14:29:45.661Z,3.56
2018-03-19T14:32:13.203Z,3.50
2018-03-19T14:34:40.751Z,3.43
2018-03-19T14:37:08.337Z,3.43
2018-03-19T14:39:35.874Z,3.42
2018-03-19T14:42:03.430Z,3.41
2018-03-19T14:44:31.003Z,3.41
2018-03-19T14:46:58.574Z,3.43
2018-03-19T14:49:26.129Z,3.40
2018-03-19T14:51:53.848Z,3.30
2018-03-19T14:54:21.390Z,3.31
2018-03-19T14:56:48.935Z,3.37
2018-03-19T14:59:18.097Z,3.27
2018-03-19T15:01:45.643Z,3.30
2018-03-19T15:04:13.207Z,3.25
2018-03-19T15:06:41.121Z,3.28
2018-03-19T15:09:08.656Z,3.25
2018-03-19T15:11:36.229Z,3.15
2018-03-19T15:14:03.845Z,3.13
2018-03-19T15:16:31.389Z,3.16
2018-03-19T15:18:58.966Z,3.12
2018-03-19T15:21:26.654Z,3.09
2018-03-19T15:23:54.198Z,3.08
2018-03-19T15:26:21.764Z,3.09
2018-03-19T15:28:49.350Z,3.08
2018-03-19T15:31:16.956Z,2.95
2018-03-19T15:33:44.491Z,2.89
2018-03-19T15:36:12.203Z,2.87
2018-03-19T15:38:39.767Z,2.86
2018-03-19T15:41:07.323Z,2.84
2018-03-19T15:43:35.041Z,2.76
2018-03-19T15:46:02.588Z,2.72
2018-03-19T15:48:30.139Z,2.74
2018-03-19T15:50:57.729Z,2.67
2018-03-19T15:53:25.273Z,2.63
2018-03-19T15:55:52.831Z,2.61
2018-03-19T15:58:20.380Z,2.64
2018-03-19T16:00:47.922Z,2.58
2018-03-19T16:03:15.506Z,2.56
2018-03-19T16:05:43.080Z,2.57
2018-03-19T16:08:10.615Z,2.45
2018-03-19T16:10:38.328Z,2.44
2018-03-19T16:13:05.871Z,2.45
2018-03-19T16:15:33.425Z,2.48
2018-03-19T16:18:01.014Z,2.43
2018-03-19T16:20:28.590Z,2.43
2018-03-19T16:22:56.122Z,2.45
2018-03-19T16:25:23.698Z,2.42
2018-03-19T16:27:51.298Z,2.46
2018-03-19T16:30:18.827Z,2.46
2018-03-19T16:32:46.412Z,2.47
2018-03-19T16:35:13.958Z,2.40
2018-03-19T16:37:41.503Z,2.42
2018-03-19T16:40:09.083Z,2.40
2018-03-19T16:42:36.640Z,2.43
2018-03-19T16:45:04.215Z,2.39
2018-03-19T16:47:31.803Z,2.35
2018-03-19T16:49:59.358Z,2.35
2018-03-19T16:52:26.922Z,2.34
2018-03-19T16:54:54.610Z,2.40
2018-03-19T16:57:22.161Z,2.38
2018-03-19T16:59:49.714Z,2.45
2018-03-19T17:02:17.617Z,2.38
2018-03-19T17:04:45.176Z,2.34
2018-03-19T17:07:12.744Z,2.32
2018-03-19T17:09:40.458Z,2.29
2018-03-19T17:12:08.025Z,2.20
2018-03-19T17:14:35.584Z,2.16
2018-03-19T17:17:03.170Z,2.13
2018-03-19T17:19:30.744Z,2.15
2018-03-19T17:21:58.307Z,2.08
2018-03-19T17:24:25.903Z,1.89
2018-03-19T17:26:53.455Z,1.87
2018-03-19T17:29:21.034Z,1.91
2018-03-19T17:31:48.723Z,1.85
2018-03-19T17:34:16.291Z,1.87
2018-03-19T17:36:43.856Z,1.78
2018-03-19T17:39:11.575Z,1.74
2018-03-19T17:41:39.140Z,1.71
2018-03-19T17:44:06.702Z,1.73
2018-03-19T17:46:34.331Z,1.69
2018-03-19T17:49:01.877Z,1.72
2018-03-19T17:51:29.443Z,1.71
2018-03-19T17:53:57.175Z,1.78
2018-03-19T17:56:24.724Z,1.82
2018-03-19T17:58:52.296Z,1.83
2018-03-19T18:01:20.049Z,1.79
2018-03-19T18:03:47.591Z,1.74
2018-03-19T18:06:15.143Z,1.82
2018-03-19T18:08:42.736Z,1.81
2018-03-19T18:11:10.274Z,1.84
2018-03-19T18:13:37.835Z,1.85
2018-03-19T18:16:05.712Z,1.87
2018-03-19T18:18:33.256Z,1.90
2018-03-19T18:21:00.799Z,1.86
2018-03-19T18:23:28.482Z,1.82
2018-03-19T18:25:56.069Z,1.81
2018-03-19T18:28:23.600Z,1.84
2018-03-19T18:30:51.319Z,1.83
2018-03-19T18:33:18.871Z,1.82
2018-03-19T18:35:46.490Z,1.81
2018-03-19T18:38:14.103Z,1.87
2018-03-19T18:40:41.660Z,1.82
2018-03-19T18:43:09.230Z,1.81
2018-03-19T18:45:36.964Z,1.80
2018-03-19T18:48:04.530Z,1.78
2018-03-19T18:50:32.088Z,1.81
2018-03-19T18:52:59.682Z,1.79
2018-03-19T18:55:27.242Z,1.83
2018-03-19T18:57:54.796Z,1.80
2018-03-19T19:00:22.548Z,1.74
2018-03-19T19:02:50.200Z,1.76
2018-03-19T19:05:17.763Z,1.78
2018-03-19T19:07:45.515Z,1.75
2018-03-19T19:10:13.082Z,1.75
2018-03-19T19:12:40.730Z,1.75
2018-03-19T19:15:08.495Z,1.80
2018-03-19T19:17:36.067Z,1.78
2018-03-19T19:20:03.715Z,1.77
2018-03-19T19:22:31.276Z,1.77
2018-03-19T19:24:58.819Z,1.75
2018-03-19T19:27:26.361Z,1.70
2018-03-19T19:29:54.003Z,1.73
2018-03-19T19:32:21.571Z,1.77
2018-03-19T19:34:49.124Z,1.79
2018-03-19T19:37:16.714Z,1.80
2018-03-19T19:39:44.262Z,1.80
2018-03-19T19:42:11.815Z,1.81
2018-03-19T19:44:39.677Z,1.83
2018-03-19T19:47:07.230Z,1.83
2018-03-19T19:49:34.796Z,1.83
2018-03-19T19:52:02.689Z,1.87
2018-03-19T19:54:30.229Z,1.85
2018-03-19T19:56:57.775Z,1.86
2018-03-19T19:59:25.520Z,1.90
2018-03-19T20:01:53.067Z,1.85
2018-03-19T20:04:20.622Z,1.85
2018-03-19T20:06:48.207Z,1.83
2018-03-19T20:09:15.750Z,1.85
2018-03-19T20:11:43.332Z,1.89
2018-03-19T20:14:11.245Z,1.89
2018-03-19T20:16:38.787Z,1.89
2018-03-19T20:19:06.327Z,1.83
2018-03-19T20:21:34.221Z,1.85
2018-03-19T20:24:01.771Z,1.87
2018-03-19T20:26:29.325Z,1.88
2018-03-19T20:28:57.003Z,1.88
2018-03-19T20:31:24.539Z,1.90
2018-03-19T20:33:52.091Z,1.92
2018-03-19T20:36:19.701Z,1.94
2018-03-19T20:38:47.251Z,1.96
2018-03-19T20:41:14.794Z,1.93
2018-03-19T20:43:42.515Z,1.96
2018-03-19T20:46:10.091Z,1.93
2018-03-19T20:48:37.655Z,1.85
2018-03-19T20:51:05.245Z,1.82
2018-03-19T20:53:32.803Z,1.78
2018-03-19T20:56:00.348Z,1.71
2018-03-19T20:58:27.891Z,1.69
2018-03-19T21:00:55.451Z,1.66
2018-03-19T21:03:23.175Z,1.58
2018-03-19T21:05:50.735Z,1.60
2018-03-19T21:08:18.299Z,1.62
2018-03-19T21:10:46.172Z,1.62
2018-03-19T21:13:13.720Z,1.55
2018-03-19T21:15:41.267Z,1.51
2018-03-19T21:18:08.871Z,1.56
2018-03-19T21:20:36.420Z,1.56
2018-03-19T21:23:03.986Z,1.57
2018-03-19T21:25:31.569Z,1.59
2018-03-19T21:27:59.188Z,1.60
2018-03-19T21:30:26.786Z,1.59
2018-03-19T21:32:54.390Z,1.56
2018-03-19T21:35:21.964Z,1.52
2018-03-19T21:37:49.530Z,1.58
2018-03-19T21:40:17.119Z,1.50
2018-03-19T21:42:44.658Z,1.51
2018-03-19T21:45:12.219Z,1.52
2018-03-19T21:47:39.983Z,1.49
2018-03-19T21:50:07.560Z,1.50
2018-03-19T21:52:35.110Z,1.54
2018-03-19T21:55:03.010Z,1.58
2018-03-19T21:57:30.564Z,1.51
2018-03-19T21:59:58.111Z,1.56
2018-03-19T22:02:25.685Z,1.62
2018-03-19T22:04:53.232Z,1.69
2018-03-19T22:07:20.795Z,1.72
2018-03-19T22:09:48.483Z,1.75
2018-03-19T22:12:16.054Z,1.78
2018-03-19T22:14:43.607Z,1.83
2018-03-19T22:17:11.206Z,1.85
2018-03-19T22:19:38.746Z,1.87
2018-03-19T22:22:06.293Z,1.86
2018-03-19T22:24:34.158Z,1.91
2018-03-19T22:27:01.706Z,1.87
2018-03-19T22:29:29.246Z,1.86
2018-03-19T22:31:56.939Z,1.89
2018-03-19T22:34:24.511Z,1.89
2018-03-19T22:36:52.058Z,1.87
2018-03-19T22:39:19.655Z,1.87
2018-03-19T22:41:47.198Z,1.90
2018-03-19T22:44:14.746Z,1.79
2018-03-19T22:46:42.314Z,1.82
2018-03-19T22:49:09.864Z,1.84
2018-03-19T22:51:37.391Z,1.84
2018-03-19T22:54:04.961Z,1.88
2018-03-19T22:56:32.512Z,1.87
2018-03-19T22:59:00.051Z,1.90
2018-03-19T23:01:27.822Z,1.82
2018-03-19T23:03:55.364Z,1.85
2018-03-19T23:06:22.912Z,1.83
2018-03-19T23:08:50.493Z,1.81
2018-03-19T23:11:18.098Z,1.83
2018-03-19T23:13:45.639Z,1.90
2018-03-19T23:16:13.207Z,1.84
2018-03-19T23:18:40.754Z,1.87
2018-03-19T23:21:08.294Z,1.89
2018-03-19T23:23:35.877Z,1.90
2018-03-19T23:26:03.429Z,1.96
2018-03-19T23:28:30.980Z,2.01
2018-03-19T23:30:58.603Z,1.99
2018-03-19T23:33:26.159Z,2.07
2018-03-19T23:35:53.950Z,2.10
2018-03-19T23:38:21.669Z,2.09
2018-03-19T23:40:49.251Z,2.11
2018-03-19T23:43:16.807Z,2.10
2018-03-19T23:45:44.494Z,2.13
2018-03-19T23:48:12.021Z,2.16
2018-03-19T23:50:39.550Z,2.21
2018-03-19T23:53:07.123Z,2.19
2018-03-19T23:55:34.667Z,2.15
2018-03-19T23:58:02.215Z,2.15
